createdAt,value
2022-07-26T00:00:39.566Z,18.98
2022-07-26T00:03:05.908Z,19.17
2022-07-26T00:05:32.228Z,19.22
2022-07-26T00:07:58.483Z,19.36
2022-07-26T00:10:24.706Z,19.51
2022-07-26T00:12:50.945Z,19.53
2022-07-26T00:15:17.171Z,19.60
2022-07-26T00:17:43.406Z,19.39
2022-07-26T00:20:09.738Z,19.52
2022-07-26T00:22:36.009Z,19.55
2022-07-26T00:25:03.283Z,19.63
2022-07-26T00:27:29.528Z,19.57
2022-07-26T00:29:55.788Z,19.60
2022-07-26T00:32:22.026Z,19.48
2022-07-26T00:34:48.276Z,19.36
2022-07-26T00:37:19.993Z,19.32
2022-07-26T00:39:46.665Z,19.25
2022-07-26T00:42:12.900Z,19.19
2022-07-26T00:44:39.691Z,19.14
2022-07-26T00:47:05.971Z,19.18
2022-07-26T00:49:32.215Z,19.09
2022-07-26T00:51:58.457Z,18.91
2022-07-26T00:54:24.710Z,18.91
2022-07-26T00:56:54.977Z,18.86
2022-07-26T00:59:21.495Z,18.88
2022-07-26T01:01:48.009Z,18.87
2022-07-26T01:04:14.573Z,18.83
2022-07-26T01:06:41.392Z,18.88
2022-07-26T01:09:07.870Z,18.93
2022-07-26T01:11:34.281Z,18.94
2022-07-26T01:14:00.670Z,19.01
2022-07-26T01:16:27.091Z,18.94
2022-07-26T01:18:53.527Z,19.04
2022-07-26T01:21:19.903Z,18.98
2022-07-26T01:23:46.291Z,19.03
2022-07-26T01:26:12.718Z,19.06
2022-07-26T01:28:40.606Z,19.07
2022-07-26T01:31:07.393Z,19.05
2022-07-26T01:33:34.298Z,19.03
2022-07-26T01:36:00.941Z,19.00
2022-07-26T01:38:27.340Z,18.70
2022-07-26T01:40:53.809Z,18.59
2022-07-26T01:43:20.192Z,18.66
2022-07-26T01:45:46.680Z,18.53
2022-07-26T01:48:13.082Z,18.50
2022-07-26T01:50:39.550Z,18.60
2022-07-26T01:53:06.250Z,18.57
2022-07-26T01:55:32.931Z,18.18
2022-07-26T01:58:00.435Z,18.16
2022-07-26T02:00:26.819Z,18.21
2022-07-26T02:02:53.276Z,18.20
2022-07-26T02:05:19.802Z,18.28
2022-07-26T02:07:46.170Z,18.23
2022-07-26T02:10:13.121Z,18.17
2022-07-26T02:12:40.921Z,18.15
2022-07-26T02:15:07.781Z,18.25
2022-07-26T02:17:34.149Z,18.27
2022-07-26T02:20:00.543Z,18.36
2022-07-26T02:22:26.923Z,18.34
2022-07-26T02:24:53.433Z,18.31
2022-07-26T02:27:19.828Z,18.26
2022-07-26T02:29:46.213Z,18.16
2022-07-26T02:32:12.577Z,18.08
2022-07-26T02:34:38.972Z,17.89
2022-07-26T02:37:05.359Z,17.88
2022-07-26T02:39:31.743Z,17.69
2022-07-26T02:41:59.047Z,17.73
2022-07-26T02:44:25.706Z,17.77
2022-07-26T02:46:52.349Z,17.67
2022-07-26T02:49:19.274Z,17.71
2022-07-26T02:51:45.882Z,17.74
2022-07-26T02:54:12.665Z,17.72
2022-07-26T02:56:39.322Z,17.83
2022-07-26T02:59:05.884Z,17.95
2022-07-26T03:01:32.298Z,18.17
2022-07-26T03:03:58.769Z,18.26
2022-07-26T03:06:25.134Z,18.20
2022-07-26T03:08:51.514Z,18.15
2022-07-26T03:11:17.892Z,18.18
2022-07-26T03:13:44.269Z,18.28
2022-07-26T03:16:10.756Z,18.30
2022-07-26T03:18:37.182Z,18.34
2022-07-26T03:21:03.663Z,18.33
2022-07-26T03:23:30.034Z,18.21
2022-07-26T03:25:56.423Z,18.26
2022-07-26T03:28:22.788Z,18.07
2022-07-26T03:30:49.207Z,17.89
2022-07-26T03:33:15.620Z,17.66
2022-07-26T03:35:42.017Z,17.76
2022-07-26T03:38:08.393Z,17.72
2022-07-26T03:40:34.776Z,17.96
2022-07-26T03:43:01.149Z,18.15
2022-07-26T03:45:29.311Z,18.12
2022-07-26T03:47:55.674Z,18.03
2022-07-26T03:50:22.046Z,17.95
2022-07-26T03:52:48.419Z,17.98
2022-07-26T03:55:14.807Z,18.11
2022-07-26T03:57:41.184Z,18.16
2022-07-26T04:00:08.161Z,18.11
2022-07-26T04:02:34.606Z,17.97
2022-07-26T04:05:01.055Z,18.00
2022-07-26T04:07:27.440Z,18.01
2022-07-26T04:09:53.830Z,17.88
2022-07-26T04:12:20.206Z,17.91
2022-07-26T04:14:46.573Z,17.90
2022-07-26T04:17:13.119Z,17.84
2022-07-26T04:19:40.021Z,17.80
2022-07-26T04:22:06.423Z,17.83
2022-07-26T04:24:32.806Z,17.86
2022-07-26T04:26:59.188Z,18.00
2022-07-26T04:29:25.569Z,18.01
2022-07-26T04:31:51.968Z,17.93
2022-07-26T04:34:18.333Z,17.89
2022-07-26T04:36:44.709Z,17.85
2022-07-26T04:39:11.088Z,17.81
2022-07-26T04:41:37.458Z,17.86
2022-07-26T04:44:03.952Z,17.91
2022-07-26T04:46:30.440Z,18.02
2022-07-26T04:48:56.936Z,18.14
2022-07-26T04:51:23.393Z,18.14
2022-07-26T04:53:50.294Z,18.04
2022-07-26T04:56:16.686Z,18.12
2022-07-26T04:58:43.063Z,18.19
2022-07-26T05:01:10.749Z,18.26
2022-07-26T05:03:37.896Z,18.31
2022-07-26T05:06:04.418Z,18.59
2022-07-26T05:08:30.796Z,18.83
2022-07-26T05:10:57.186Z,18.87
2022-07-26T05:13:30.352Z,18.73
2022-07-26T05:15:57.569Z,18.62
2022-07-26T05:18:23.955Z,18.58
2022-07-26T05:20:50.836Z,18.51
2022-07-26T05:23:17.218Z,18.64
2022-07-26T05:25:43.705Z,18.85
2022-07-26T05:28:10.089Z,18.71
2022-07-26T05:30:36.534Z,18.81
2022-07-26T05:33:02.957Z,19.11
2022-07-26T05:35:29.340Z,19.28
2022-07-26T05:37:55.712Z,19.39
2022-07-26T05:40:22.105Z,19.48
2022-07-26T05:42:48.638Z,19.14
2022-07-26T05:45:15.039Z,19.12
2022-07-26T05:47:41.425Z,19.30
2022-07-26T05:50:08.105Z,19.25
2022-07-26T05:52:34.490Z,19.38
2022-07-26T05:55:00.884Z,19.50
2022-07-26T05:57:27.258Z,20.04
2022-07-26T05:59:53.629Z,20.40
2022-07-26T06:02:20.065Z,19.76
2022-07-26T06:04:47.574Z,19.66
2022-07-26T06:07:14.424Z,19.90
2022-07-26T06:09:40.801Z,19.84
2022-07-26T06:12:07.221Z,19.70
2022-07-26T06:14:33.940Z,19.45
2022-07-26T06:17:00.404Z,19.13
2022-07-26T06:19:26.825Z,19.35
2022-07-26T06:21:53.223Z,19.31
2022-07-26T06:24:19.603Z,19.11
2022-07-26T06:26:45.988Z,18.91
2022-07-26T06:29:13.140Z,19.40
2022-07-26T06:31:39.543Z,20.86
2022-07-26T06:34:06.461Z,20.92
2022-07-26T06:36:36.297Z,21.57
2022-07-26T06:39:02.706Z,22.00
2022-07-26T06:41:29.095Z,22.57
2022-07-26T06:43:55.467Z,22.26
2022-07-26T06:46:21.931Z,22.36
2022-07-26T06:48:52.626Z,21.97
2022-07-26T06:51:19.573Z,21.06
2022-07-26T06:53:45.944Z,20.78
2022-07-26T06:56:12.332Z,21.44
2022-07-26T06:58:38.717Z,21.93
2022-07-26T07:01:05.196Z,22.28
2022-07-26T07:03:31.639Z,22.23
2022-07-26T07:05:58.022Z,22.72
2022-07-26T07:08:24.397Z,22.60
2022-07-26T07:10:51.686Z,23.16
2022-07-26T07:13:18.960Z,22.93
2022-07-26T07:15:45.353Z,23.29
2022-07-26T07:18:11.723Z,22.58
2022-07-26T07:20:38.926Z,22.05
2022-07-26T07:23:05.298Z,22.05
2022-07-26T07:25:31.712Z,23.03
2022-07-26T07:27:58.531Z,23.34
2022-07-26T07:30:25.000Z,22.69
2022-07-26T07:32:54.370Z,22.57
2022-07-26T07:35:20.745Z,22.27
2022-07-26T07:37:52.763Z,21.64
2022-07-26T07:40:20.366Z,21.04
2022-07-26T07:42:46.744Z,21.79
2022-07-26T07:45:13.118Z,22.28
2022-07-26T07:47:39.499Z,22.05
2022-07-26T07:50:06.504Z,22.87
2022-07-26T07:52:32.882Z,23.00
2022-07-26T07:55:36.025Z,23.61
2022-07-26T07:57:45.664Z,23.34
2022-07-26T08:00:12.921Z,23.15
2022-07-26T08:02:42.363Z,22.43
2022-07-26T08:05:11.338Z,22.86
2022-07-26T08:07:41.007Z,23.18
2022-07-26T08:10:08.008Z,23.25
2022-07-26T08:12:34.406Z,23.28
2022-07-26T08:15:00.866Z,22.92
2022-07-26T08:17:34.044Z,22.42
2022-07-26T08:20:01.617Z,21.93
2022-07-26T08:22:28.028Z,21.48
2022-07-26T08:24:54.393Z,21.17
2022-07-26T08:27:20.994Z,20.76
2022-07-26T08:29:47.380Z,20.45
2022-07-26T08:32:13.863Z,19.30
2022-07-26T08:34:40.255Z,18.66
2022-07-26T08:37:17.246Z,18.45
2022-07-26T08:39:44.878Z,18.38
2022-07-26T08:42:22.866Z,18.20
2022-07-26T08:44:49.906Z,18.32
2022-07-26T08:47:18.142Z,18.40
2022-07-26T08:50:01.941Z,18.64
2022-07-26T08:52:28.505Z,18.50
2022-07-26T08:54:54.882Z,18.57
2022-07-26T08:57:21.262Z,18.71
2022-07-26T09:00:08.068Z,18.65
2022-07-26T09:02:40.078Z,18.71
2022-07-26T09:05:06.916Z,18.48
2022-07-26T09:07:33.512Z,18.65
2022-07-26T09:10:02.391Z,18.47
2022-07-26T09:12:29.426Z,18.53
2022-07-26T09:14:56.053Z,18.75
2022-07-26T09:17:23.948Z,18.52
2022-07-26T09:20:07.137Z,18.71
2022-07-26T09:22:33.522Z,18.77
2022-07-26T09:24:59.890Z,19.05
2022-07-26T09:27:28.272Z,19.04
2022-07-26T09:29:54.859Z,18.95
2022-07-26T09:32:25.576Z,19.05
2022-07-26T09:34:58.743Z,19.07
2022-07-26T09:37:35.563Z,19.14
2022-07-26T09:40:03.469Z,19.03
2022-07-26T09:42:30.176Z,18.74
2022-07-26T09:44:57.073Z,18.52
2022-07-26T09:47:26.971Z,18.54
2022-07-26T09:50:11.726Z,18.35
2022-07-26T09:52:40.321Z,18.83
2022-07-26T09:55:07.744Z,19.84
2022-07-26T09:57:34.432Z,19.64
2022-07-26T10:00:05.227Z,19.46
2022-07-26T10:02:32.897Z,19.68
2022-07-26T10:04:59.349Z,19.67
2022-07-26T10:07:25.733Z,19.99
2022-07-26T10:10:00.943Z,19.96
2022-07-26T10:12:30.573Z,19.76
2022-07-26T10:14:57.148Z,19.62
2022-07-26T10:17:31.412Z,19.97
2022-07-26T10:20:03.143Z,20.06
2022-07-26T10:22:41.017Z,20.06
2022-07-26T10:25:19.684Z,19.85
2022-07-26T10:27:50.687Z,19.75
2022-07-26T10:30:17.540Z,19.94
2022-07-26T10:33:07.116Z,20.31
2022-07-26T10:35:34.021Z,20.16
2022-07-26T10:38:02.639Z,19.93
2022-07-26T10:40:29.058Z,19.40
2022-07-26T10:46:17.261Z,18.35
2022-07-26T10:49:03.102Z,18.33
2022-07-26T10:51:39.898Z,18.64
2022-07-26T10:54:10.452Z,18.65
2022-07-26T10:56:37.171Z,18.44
2022-07-26T10:59:04.275Z,17.98
2022-07-26T11:01:34.724Z,17.99
2022-07-26T11:04:01.202Z,17.77
2022-07-26T11:06:28.549Z,18.01
2022-07-26T11:08:54.927Z,18.51
2022-07-26T11:11:29.249Z,19.45
2022-07-26T11:14:09.660Z,19.56
2022-07-26T11:16:49.220Z,20.22
2022-07-26T11:19:20.005Z,20.55
2022-07-26T11:21:47.691Z,20.74
2022-07-26T11:24:14.601Z,19.98
2022-07-26T11:26:42.357Z,19.53
2022-07-26T11:29:08.750Z,19.70
2022-07-26T11:31:51.341Z,19.27
2022-07-26T11:34:26.221Z,18.90
2022-07-26T11:36:54.948Z,19.13
2022-07-26T11:39:23.479Z,19.69
2022-07-26T11:41:49.943Z,19.53
2022-07-26T11:44:20.417Z,19.35
2022-07-26T11:46:46.913Z,19.27
2022-07-26T11:49:59.736Z,19.06
2022-07-26T11:52:14.588Z,18.89
2022-07-26T11:54:48.017Z,18.71
2022-07-26T11:57:14.496Z,19.40
2022-07-26T11:59:40.989Z,20.44
2022-07-26T12:02:08.554Z,20.68
2022-07-26T12:04:36.868Z,20.85
2022-07-26T12:07:14.091Z,20.71
2022-07-26T12:09:47.818Z,20.80
2022-07-26T12:12:25.719Z,20.35
2022-07-26T12:14:59.207Z,20.45
2022-07-26T12:17:25.673Z,20.11
2022-07-26T12:19:53.659Z,20.65
2022-07-26T12:22:23.456Z,21.10
2022-07-26T12:24:52.695Z,21.02
2022-07-26T12:27:24.429Z,20.27
2022-07-26T12:30:14.471Z,20.22
2022-07-26T12:32:42.053Z,20.70
2022-07-26T12:35:15.088Z,21.39
2022-07-26T12:37:47.447Z,21.72
2022-07-26T12:40:15.472Z,21.75
2022-07-26T12:42:50.815Z,21.02
2022-07-26T12:45:21.403Z,20.58
2022-07-26T12:47:49.101Z,20.59
2022-07-26T12:50:16.505Z,20.84
2022-07-26T12:52:42.918Z,20.90
2022-07-26T12:55:10.721Z,21.30
2022-07-26T12:57:37.146Z,21.70
2022-07-26T13:00:04.458Z,22.21
2022-07-26T13:02:30.834Z,21.32
2022-07-26T13:05:00.371Z,20.45
2022-07-26T13:07:27.178Z,20.36
2022-07-26T13:10:14.249Z,20.47
2022-07-26T13:12:40.310Z,19.92
2022-07-26T13:15:07.069Z,20.31
2022-07-26T13:17:33.460Z,20.55
2022-07-26T13:19:59.834Z,20.70
2022-07-26T13:22:26.228Z,21.31
2022-07-26T13:24:52.701Z,21.46
2022-07-26T13:27:20.119Z,21.30
2022-07-26T13:29:46.486Z,21.12
2022-07-26T13:32:12.872Z,21.69
2022-07-26T13:34:39.240Z,21.50
2022-07-26T13:37:08.046Z,21.25
2022-07-26T13:39:35.145Z,21.13
2022-07-26T13:42:01.532Z,21.52
2022-07-26T13:44:27.928Z,21.35
2022-07-26T13:46:54.356Z,21.46
2022-07-26T13:49:20.889Z,21.51
2022-07-26T13:51:47.333Z,21.69
2022-07-26T13:54:14.755Z,21.73
2022-07-26T13:56:41.273Z,21.63
2022-07-26T13:59:07.639Z,21.76
2022-07-26T14:01:44.755Z,22.03
2022-07-26T14:04:13.187Z,22.11
2022-07-26T14:06:39.965Z,22.11
2022-07-26T14:09:10.356Z,22.05
2022-07-26T14:11:37.279Z,21.65
2022-07-26T14:14:03.775Z,21.34
2022-07-26T14:16:30.253Z,21.48
2022-07-26T14:18:57.040Z,21.44
2022-07-26T14:21:38.709Z,21.52
2022-07-26T14:24:14.117Z,21.44
2022-07-26T14:26:42.900Z,21.30
2022-07-26T14:29:09.279Z,21.38
2022-07-26T14:31:35.692Z,21.45
2022-07-26T14:34:02.090Z,21.36
2022-07-26T14:36:28.489Z,21.13
2022-07-26T14:38:54.864Z,21.12
2022-07-26T14:41:21.345Z,21.13
2022-07-26T14:43:52.492Z,21.14
2022-07-26T14:46:21.890Z,20.73
2022-07-26T14:48:54.596Z,20.78
2022-07-26T14:51:21.405Z,20.98
2022-07-26T14:53:47.799Z,21.02
2022-07-26T14:56:14.183Z,20.83
2022-07-26T14:58:40.576Z,20.83
2022-07-26T15:01:06.997Z,21.21
2022-07-26T15:03:33.613Z,21.24
2022-07-26T15:05:59.984Z,21.33
2022-07-26T15:08:26.370Z,20.83
2022-07-26T15:10:52.749Z,20.68
2022-07-26T15:13:19.127Z,20.91
2022-07-26T15:15:45.494Z,20.84
2022-07-26T15:18:12.101Z,20.73
2022-07-26T15:20:43.030Z,20.69
2022-07-26T15:23:13.018Z,20.86
2022-07-26T15:25:39.439Z,20.92
2022-07-26T15:28:07.605Z,20.85
2022-07-26T15:30:33.987Z,20.39
2022-07-26T15:33:00.370Z,20.25
2022-07-26T15:35:26.760Z,19.97
2022-07-26T15:37:53.371Z,20.30
2022-07-26T15:40:19.778Z,20.83
2022-07-26T15:42:46.174Z,20.70
2022-07-26T15:45:12.702Z,20.60
2022-07-26T15:48:01.073Z,20.80
2022-07-26T15:50:26.035Z,20.81
2022-07-26T15:52:52.426Z,20.63
2022-07-26T15:55:19.976Z,20.21
2022-07-26T15:57:46.486Z,20.14
2022-07-26T16:00:13.334Z,20.58
2022-07-26T16:02:39.863Z,20.27
2022-07-26T16:05:06.414Z,20.20
2022-07-26T16:07:32.805Z,20.32
2022-07-26T16:09:59.192Z,20.16
2022-07-26T16:12:25.591Z,20.09
2022-07-26T16:14:51.964Z,20.03
2022-07-26T16:17:18.380Z,20.17
2022-07-26T16:19:47.573Z,20.11
2022-07-26T16:22:14.161Z,20.01
2022-07-26T16:24:41.622Z,19.99
2022-07-26T16:27:08.433Z,20.11
2022-07-26T16:29:34.826Z,20.03
2022-07-26T16:32:03.348Z,20.02
2022-07-26T16:34:29.782Z,20.02
2022-07-26T16:36:56.153Z,20.05
2022-07-26T16:39:22.553Z,19.61
2022-07-26T16:41:48.935Z,19.59
2022-07-26T16:44:15.327Z,19.72
2022-07-26T16:46:41.817Z,19.92
2022-07-26T16:49:10.874Z,19.90
2022-07-26T16:51:37.484Z,19.37
2022-07-26T16:54:04.036Z,19.37
2022-07-26T16:56:30.421Z,19.52
2022-07-26T16:58:56.811Z,19.57
2022-07-26T17:01:23.240Z,19.35
2022-07-26T17:03:49.698Z,19.23
2022-07-26T17:06:16.074Z,18.96
2022-07-26T17:08:42.453Z,18.75
2022-07-26T17:11:08.863Z,18.62
2022-07-26T17:13:35.271Z,18.82
2022-07-26T17:16:01.712Z,18.88
2022-07-26T17:18:28.594Z,19.07
2022-07-26T17:20:54.972Z,18.95
2022-07-26T17:23:21.351Z,18.96
2022-07-26T17:25:47.719Z,18.78
2022-07-26T17:28:14.102Z,18.42
2022-07-26T17:30:43.396Z,18.60
2022-07-26T17:33:09.843Z,18.69
2022-07-26T17:35:36.273Z,18.79
2022-07-26T17:38:02.988Z,18.54
2022-07-26T17:40:30.099Z,18.55
2022-07-26T17:42:56.540Z,18.41
2022-07-26T17:45:23.113Z,18.35
2022-07-26T17:47:49.494Z,18.29
2022-07-26T17:53:02.371Z,18.08
2022-07-26T17:55:28.747Z,17.91
2022-07-26T17:57:55.126Z,17.75
2022-07-26T18:00:22.089Z,17.73
2022-07-26T18:02:48.530Z,17.65
2022-07-26T18:05:15.086Z,17.58
2022-07-26T18:07:41.504Z,17.48
2022-07-26T18:10:08.272Z,17.41
2022-07-26T18:12:34.646Z,17.26
2022-07-26T18:15:01.038Z,17.36
2022-07-26T18:17:27.420Z,17.45
2022-07-26T18:19:53.808Z,17.33
2022-07-26T18:22:20.183Z,17.39
2022-07-26T18:24:46.598Z,17.30
2022-07-26T18:27:12.986Z,17.19
2022-07-26T18:29:39.371Z,17.17
2022-07-26T18:32:06.028Z,17.18
2022-07-26T18:34:32.420Z,17.10
2022-07-26T18:36:58.814Z,17.08
2022-07-26T18:39:25.205Z,17.02
2022-07-26T18:41:59.091Z,16.95
2022-07-26T18:44:25.497Z,16.91
2022-07-26T18:46:51.929Z,16.74
2022-07-26T18:49:20.082Z,16.75
2022-07-26T18:51:48.829Z,16.64
2022-07-26T18:54:15.697Z,16.66
2022-07-26T18:56:42.066Z,16.65
2022-07-26T18:59:08.797Z,16.62
2022-07-26T19:01:35.469Z,16.65
2022-07-26T19:04:06.522Z,16.69
2022-07-26T19:06:33.769Z,16.71
2022-07-26T19:09:00.308Z,16.66
2022-07-26T19:11:26.696Z,16.53
2022-07-26T19:13:53.500Z,16.54
2022-07-26T19:16:22.199Z,16.45
2022-07-26T19:18:51.665Z,16.33
2022-07-26T19:21:19.167Z,16.29
2022-07-26T19:23:45.571Z,16.24
2022-07-26T19:26:11.947Z,16.13
2022-07-26T19:28:38.345Z,16.16
2022-07-26T19:31:04.783Z,16.10
2022-07-26T19:33:31.214Z,16.04
2022-07-26T19:35:57.604Z,16.03
2022-07-26T19:38:23.991Z,15.93
2022-07-26T19:40:50.372Z,15.92
2022-07-26T19:43:16.759Z,15.93
2022-07-26T19:45:43.188Z,15.92
2022-07-26T19:48:09.594Z,15.81
2022-07-26T19:50:35.978Z,15.79
2022-07-26T19:53:02.367Z,15.79
2022-07-26T19:55:28.759Z,15.67
2022-07-26T19:57:55.135Z,15.64
2022-07-26T20:00:21.705Z,15.74
2022-07-26T20:02:48.197Z,15.59
2022-07-26T20:05:14.606Z,15.73
2022-07-26T20:07:40.993Z,15.74
2022-07-26T20:10:07.866Z,15.57
2022-07-26T20:12:35.319Z,15.53
2022-07-26T20:15:01.704Z,15.58
2022-07-26T20:17:28.144Z,15.71
2022-07-26T20:19:54.551Z,15.80
2022-07-26T20:22:20.931Z,15.71
2022-07-26T20:24:47.309Z,15.63
2022-07-26T20:27:13.685Z,15.49
2022-07-26T20:29:40.076Z,15.47
2022-07-26T20:32:06.508Z,15.37
2022-07-26T20:34:32.897Z,15.29
2022-07-26T20:36:59.271Z,15.23
2022-07-26T20:39:25.659Z,15.49
2022-07-26T20:41:52.032Z,15.33
2022-07-26T20:44:20.920Z,15.32
2022-07-26T20:46:50.361Z,15.30
2022-07-26T20:49:17.402Z,15.33
2022-07-26T20:51:44.354Z,15.28
2022-07-26T20:54:10.747Z,15.16
2022-07-26T20:56:37.743Z,15.27
2022-07-26T20:59:04.149Z,15.11
2022-07-26T21:01:31.067Z,15.09
2022-07-26T21:03:57.482Z,15.06
2022-07-26T21:06:23.864Z,15.03
2022-07-26T21:08:52.059Z,15.08
2022-07-26T21:11:18.702Z,14.94
2022-07-26T21:13:45.706Z,14.93
2022-07-26T21:16:15.133Z,14.93
2022-07-26T21:18:41.554Z,14.92
2022-07-26T21:21:07.963Z,15.04
2022-07-26T21:23:34.345Z,15.06
2022-07-26T21:26:01.076Z,14.96
2022-07-26T21:28:27.572Z,14.93
2022-07-26T21:30:53.969Z,15.01
2022-07-26T21:33:20.337Z,14.89
2022-07-26T21:35:46.728Z,14.94
2022-07-26T21:38:13.108Z,14.64
2022-07-26T21:40:39.497Z,14.71
2022-07-26T21:43:05.862Z,14.61
2022-07-26T21:45:32.280Z,14.71
2022-07-26T21:47:58.691Z,14.52
2022-07-26T21:50:25.107Z,14.51
2022-07-26T21:52:51.489Z,14.63
2022-07-26T21:55:18.255Z,14.49
2022-07-26T21:57:44.729Z,14.50
2022-07-26T22:00:12.445Z,14.55
2022-07-26T22:02:38.857Z,14.45
2022-07-26T22:05:05.601Z,14.49
2022-07-26T22:07:31.970Z,14.52
2022-07-26T22:09:58.358Z,14.62
2022-07-26T22:12:24.739Z,14.43
2022-07-26T22:14:51.125Z,14.43
2022-07-26T22:17:17.511Z,14.27
2022-07-26T22:19:43.905Z,14.30
2022-07-26T22:22:10.279Z,14.24
2022-07-26T22:24:36.670Z,14.28
2022-07-26T22:27:03.074Z,14.31
2022-07-26T22:29:35.729Z,14.16
2022-07-26T22:32:06.796Z,14.37
2022-07-26T22:34:33.210Z,14.36
2022-07-26T22:36:59.595Z,14.25
2022-07-26T22:39:25.969Z,14.28
2022-07-26T22:42:14.450Z,14.30
2022-07-26T22:44:38.709Z,14.42
2022-07-26T22:47:05.368Z,14.32
2022-07-26T22:49:31.814Z,14.40
2022-07-26T22:51:58.202Z,14.39
2022-07-26T22:54:24.570Z,14.32
2022-07-26T22:56:50.956Z,14.28
2022-07-26T22:59:17.330Z,14.27
2022-07-26T23:01:43.722Z,14.24
2022-07-26T23:04:10.168Z,14.27
2022-07-26T23:06:37.103Z,14.19
2022-07-26T23:09:04.728Z,14.20
2022-07-26T23:11:31.793Z,14.13
2022-07-26T23:13:59.344Z,14.08
2022-07-26T23:16:26.021Z,13.97
2022-07-26T23:18:52.579Z,14.00
2022-07-26T23:21:18.961Z,14.06
2022-07-26T23:23:45.334Z,13.98
2022-07-26T23:26:11.704Z,13.94
2022-07-26T23:28:38.676Z,13.87
2022-07-26T23:31:06.853Z,13.97
2022-07-26T23:33:52.932Z,13.82
2022-07-26T23:36:19.629Z,13.93
2022-07-26T23:38:46.010Z,13.96
2022-07-26T23:41:12.405Z,13.84
2022-07-26T23:43:38.785Z,13.86
2022-07-26T23:46:05.186Z,13.94
2022-07-26T23:48:31.639Z,13.84
2022-07-26T23:50:58.138Z,13.79
2022-07-26T23:53:26.744Z,13.91
2022-07-26T23:55:53.502Z,13.80
2022-07-26T23:58:19.883Z,13.75
